sensor_id;sensor_type;location;lat;lon;timestamp;P1;durP1;ratioP1;P2;durP2;ratioP2
49834;SDS011;35729;52.090;13.162;2023-07-31T00:02:12;5.95;;;3.53;;
49834;SDS011;35729;52.090;13.162;2023-07-31T00:04:47;4.78;;;3.25;;
49834;SDS011;35729;52.090;13.162;2023-07-31T00:07:15;7.07;;;4.07;;
49834;SDS011;35729;52.090;13.162;2023-07-31T00:09:44;5.20;;;3.17;;
49834;SDS011;35729;52.090;13.162;2023-07-31T00:12:12;5.72;;;3.58;;
49834;SDS011;35729;52.090;13.162;2023-07-31T00:14:41;4.43;;;3.22;;
49834;SDS011;35729;52.090;13.162;2023-07-31T00:17:13;4.97;;;3.30;;
49834;SDS011;35729;52.090;13.162;2023-07-31T00:19:41;6.80;;;3.83;;
49834;SDS011;35729;52.090;13.162;2023-07-31T00:22:11;4.78;;;3.33;;
49834;SDS011;35729;52.090;13.162;2023-07-31T00:24:39;4.70;;;3.30;;
49834;SDS011;35729;52.090;13.162;2023-07-31T00:27:08;6.40;;;3.40;;
49834;SDS011;35729;52.090;13.162;2023-07-31T00:29:36;4.72;;;3.97;;
49834;SDS011;35729;52.090;13.162;2023-07-31T00:32:05;5.68;;;3.60;;
49834;SDS011;35729;52.090;13.162;2023-07-31T00:34:37;6.55;;;3.78;;
49834;SDS011;35729;52.090;13.162;2023-07-31T00:37:06;4.47;;;3.63;;
49834;SDS011;35729;52.090;13.162;2023-07-31T00:39:34;6.95;;;3.60;;
49834;SDS011;35729;52.090;13.162;2023-07-31T00:42:03;4.35;;;3.38;;
49834;SDS011;35729;52.090;13.162;2023-07-31T00:44:32;6.28;;;3.50;;
49834;SDS011;35729;52.090;13.162;2023-07-31T00:47:01;6.50;;;3.75;;
49834;SDS011;35729;52.090;13.162;2023-07-31T00:49:30;3.75;;;3.40;;
49834;SDS011;35729;52.090;13.162;2023-07-31T00:52:01;8.70;;;3.35;;
49834;SDS011;35729;52.090;13.162;2023-07-31T00:54:30;7.03;;;3.35;;
49834;SDS011;35729;52.090;13.162;2023-07-31T00:56:58;6.43;;;3.92;;
49834;SDS011;35729;52.090;13.162;2023-07-31T00:59:28;5.45;;;3.70;;
49834;SDS011;35729;52.090;13.162;2023-07-31T01:01:56;4.18;;;3.78;;
49834;SDS011;35729;52.090;13.162;2023-07-31T01:04:25;5.22;;;3.47;;
49834;SDS011;35729;52.090;13.162;2023-07-31T01:06:55;6.00;;;3.55;;
49834;SDS011;35729;52.090;13.162;2023-07-31T01:09:34;6.97;;;4.20;;
49834;SDS011;35729;52.090;13.162;2023-07-31T01:12:09;7.03;;;4.57;;
49834;SDS011;35729;52.090;13.162;2023-07-31T01:14:50;6.28;;;3.88;;
49834;SDS011;35729;52.090;13.162;2023-07-31T01:17:20;5.18;;;3.92;;
49834;SDS011;35729;52.090;13.162;2023-07-31T01:19:48;5.95;;;3.53;;
49834;SDS011;35729;52.090;13.162;2023-07-31T01:22:23;4.47;;;3.80;;
49834;SDS011;35729;52.090;13.162;2023-07-31T01:25:15;5.18;;;3.58;;
49834;SDS011;35729;52.090;13.162;2023-07-31T01:28:03;5.93;;;3.92;;
49834;SDS011;35729;52.090;13.162;2023-07-31T01:30:37;7.57;;;3.78;;
49834;SDS011;35729;52.090;13.162;2023-07-31T01:33:09;5.00;;;3.45;;
49834;SDS011;35729;52.090;13.162;2023-07-31T01:35:38;4.95;;;4.22;;
49834;SDS011;35729;52.090;13.162;2023-07-31T01:38:06;3.70;;;3.30;;
49834;SDS011;35729;52.090;13.162;2023-07-31T01:40:35;8.73;;;3.70;;
49834;SDS011;35729;52.090;13.162;2023-07-31T01:43:06;6.65;;;3.47;;
49834;SDS011;35729;52.090;13.162;2023-07-31T01:45:35;7.78;;;3.15;;
49834;SDS011;35729;52.090;13.162;2023-07-31T01:48:03;7.45;;;3.25;;
49834;SDS011;35729;52.090;13.162;2023-07-31T01:50:32;5.80;;;3.25;;
49834;SDS011;35729;52.090;13.162;2023-07-31T01:53:00;6.82;;;3.03;;
49834;SDS011;35729;52.090;13.162;2023-07-31T01:55:29;7.65;;;3.35;;
49834;SDS011;35729;52.090;13.162;2023-07-31T01:57:58;7.88;;;3.38;;
49834;SDS011;35729;52.090;13.162;2023-07-31T02:00:29;10.93;;;3.25;;
49834;SDS011;35729;52.090;13.162;2023-07-31T02:02:58;8.73;;;2.97;;
49834;SDS011;35729;52.090;13.162;2023-07-31T02:05:27;5.18;;;3.45;;
49834;SDS011;35729;52.090;13.162;2023-07-31T02:07:55;6.80;;;3.03;;
49834;SDS011;35729;52.090;13.162;2023-07-31T02:10:24;6.00;;;3.10;;
49834;SDS011;35729;52.090;13.162;2023-07-31T02:12:52;4.80;;;2.85;;
49834;SDS011;35729;52.090;13.162;2023-07-31T02:15:21;5.72;;;3.08;;
49834;SDS011;35729;52.090;13.162;2023-07-31T02:17:52;6.13;;;3.03;;
49834;SDS011;35729;52.090;13.162;2023-07-31T02:20:20;9.20;;;3.70;;
49834;SDS011;35729;52.090;13.162;2023-07-31T02:22:49;6.30;;;2.70;;
49834;SDS011;35729;52.090;13.162;2023-07-31T02:25:17;7.93;;;3.47;;
49834;SDS011;35729;52.090;13.162;2023-07-31T02:27:46;9.80;;;3.50;;
49834;SDS011;35729;52.090;13.162;2023-07-31T02:30:14;7.53;;;2.53;;
49834;SDS011;35729;52.090;13.162;2023-07-31T02:32:42;6.30;;;3.20;;
49834;SDS011;35729;52.090;13.162;2023-07-31T02:35:14;10.45;;;3.17;;
49834;SDS011;35729;52.090;13.162;2023-07-31T02:37:43;7.22;;;3.65;;
49834;SDS011;35729;52.090;13.162;2023-07-31T02:40:12;6.22;;;2.55;;
49834;SDS011;35729;52.090;13.162;2023-07-31T02:42:41;9.80;;;2.75;;
49834;SDS011;35729;52.090;13.162;2023-07-31T02:45:09;7.47;;;2.70;;
49834;SDS011;35729;52.090;13.162;2023-07-31T02:47:38;7.28;;;2.78;;
49834;SDS011;35729;52.090;13.162;2023-07-31T02:50:06;6.03;;;2.60;;
49834;SDS011;35729;52.090;13.162;2023-07-31T02:52:38;6.18;;;3.30;;
49834;SDS011;35729;52.090;13.162;2023-07-31T02:55:07;8.02;;;2.72;;
49834;SDS011;35729;52.090;13.162;2023-07-31T02:57:35;4.43;;;2.40;;
49834;SDS011;35729;52.090;13.162;2023-07-31T03:00:05;5.32;;;2.65;;
49834;SDS011;35729;52.090;13.162;2023-07-31T03:02:34;6.82;;;2.95;;
49834;SDS011;35729;52.090;13.162;2023-07-31T03:05:03;5.53;;;1.80;;
49834;SDS011;35729;52.090;13.162;2023-07-31T03:07:32;4.32;;;2.30;;
49834;SDS011;35729;52.090;13.162;2023-07-31T03:10:03;4.45;;;2.28;;
49834;SDS011;35729;52.090;13.162;2023-07-31T03:12:32;8.40;;;2.92;;
49834;SDS011;35729;52.090;13.162;2023-07-31T03:15:01;5.10;;;2.55;;
49834;SDS011;35729;52.090;13.162;2023-07-31T03:17:29;5.10;;;2.10;;
49834;SDS011;35729;52.090;13.162;2023-07-31T03:19:57;6.28;;;2.22;;
49834;SDS011;35729;52.090;13.162;2023-07-31T03:22:26;6.53;;;2.42;;
49834;SDS011;35729;52.090;13.162;2023-07-31T03:24:54;4.57;;;2.30;;
49834;SDS011;35729;52.090;13.162;2023-07-31T03:27:25;7.57;;;2.95;;
49834;SDS011;35729;52.090;13.162;2023-07-31T03:29:54;3.97;;;2.40;;
49834;SDS011;35729;52.090;13.162;2023-07-31T03:32:29;6.53;;;2.50;;
49834;SDS011;35729;52.090;13.162;2023-07-31T03:34:57;5.18;;;3.00;;
49834;SDS011;35729;52.090;13.162;2023-07-31T03:37:26;7.68;;;2.53;;
49834;SDS011;35729;52.090;13.162;2023-07-31T03:39:54;8.40;;;2.38;;
49834;SDS011;35729;52.090;13.162;2023-07-31T03:42:25;6.20;;;2.20;;
49834;SDS011;35729;52.090;13.162;2023-07-31T03:44:54;6.53;;;2.08;;
49834;SDS011;35729;52.090;13.162;2023-07-31T03:47:22;7.32;;;2.60;;
49834;SDS011;35729;52.090;13.162;2023-07-31T03:49:51;3.90;;;2.20;;
49834;SDS011;35729;52.090;13.162;2023-07-31T03:52:19;3.70;;;2.17;;
49834;SDS011;35729;52.090;13.162;2023-07-31T03:54:47;4.50;;;2.20;;
49834;SDS011;35729;52.090;13.162;2023-07-31T03:57:16;8.50;;;2.97;;
49834;SDS011;35729;52.090;13.162;2023-07-31T03:59:47;6.10;;;2.38;;
49834;SDS011;35729;52.090;13.162;2023-07-31T04:02:15;5.13;;;2.00;;
49834;SDS011;35729;52.090;13.162;2023-07-31T04:04:44;11.68;;;2.70;;
49834;SDS011;35729;52.090;13.162;2023-07-31T04:07:12;5.60;;;2.25;;
49834;SDS011;35729;52.090;13.162;2023-07-31T04:09:41;5.88;;;2.53;;
49834;SDS011;35729;52.090;13.162;2023-07-31T04:12:09;4.82;;;2.53;;
49834;SDS011;35729;52.090;13.162;2023-07-31T04:14:37;6.35;;;2.60;;
49834;SDS011;35729;52.090;13.162;2023-07-31T04:17:08;6.07;;;2.72;;
49834;SDS011;35729;52.090;13.162;2023-07-31T04:19:37;4.88;;;2.30;;
49834;SDS011;35729;52.090;13.162;2023-07-31T04:22:05;6.25;;;2.45;;
49834;SDS011;35729;52.090;13.162;2023-07-31T04:24:34;7.20;;;3.00;;
49834;SDS011;35729;52.090;13.162;2023-07-31T04:27:03;7.63;;;2.67;;
49834;SDS011;35729;52.090;13.162;2023-07-31T04:29:31;17.58;;;9.40;;
49834;SDS011;35729;52.090;13.162;2023-07-31T04:32:00;7.97;;;3.42;;
49834;SDS011;35729;52.090;13.162;2023-07-31T04:34:31;7.13;;;3.50;;
49834;SDS011;35729;52.090;13.162;2023-07-31T04:36:59;6.07;;;3.00;;
49834;SDS011;35729;52.090;13.162;2023-07-31T04:39:28;6.65;;;2.80;;
49834;SDS011;35729;52.090;13.162;2023-07-31T04:41:56;6.05;;;2.30;;
49834;SDS011;35729;52.090;13.162;2023-07-31T04:44:24;9.00;;;2.78;;
49834;SDS011;35729;52.090;13.162;2023-07-31T04:46:53;5.50;;;2.45;;
49834;SDS011;35729;52.090;13.162;2023-07-31T04:49:21;5.60;;;2.28;;
49834;SDS011;35729;52.090;13.162;2023-07-31T04:51:52;7.50;;;2.60;;
49834;SDS011;35729;52.090;13.162;2023-07-31T04:54:21;9.90;;;2.80;;
49834;SDS011;35729;52.090;13.162;2023-07-31T04:56:56;5.95;;;2.58;;
49834;SDS011;35729;52.090;13.162;2023-07-31T04:59:24;4.43;;;2.03;;
49834;SDS011;35729;52.090;13.162;2023-07-31T05:01:53;7.47;;;2.35;;
49834;SDS011;35729;52.090;13.162;2023-07-31T05:04:21;4.75;;;2.40;;
49834;SDS011;35729;52.090;13.162;2023-07-31T05:06:50;6.78;;;3.00;;
49834;SDS011;35729;52.090;13.162;2023-07-31T05:09:21;9.48;;;2.67;;
49834;SDS011;35729;52.090;13.162;2023-07-31T05:11:49;9.20;;;3.30;;
49834;SDS011;35729;52.090;13.162;2023-07-31T05:14:17;10.02;;;3.22;;
49834;SDS011;35729;52.090;13.162;2023-07-31T05:16:46;8.13;;;2.78;;
49834;SDS011;35729;52.090;13.162;2023-07-31T05:19:14;6.28;;;3.15;;
49834;SDS011;35729;52.090;13.162;2023-07-31T05:21:43;5.50;;;2.75;;
49834;SDS011;35729;52.090;13.162;2023-07-31T05:24:14;7.82;;;3.35;;
49834;SDS011;35729;52.090;13.162;2023-07-31T05:26:42;6.97;;;3.42;;
49834;SDS011;35729;52.090;13.162;2023-07-31T05:29:11;9.43;;;3.42;;
49834;SDS011;35729;52.090;13.162;2023-07-31T05:31:39;7.28;;;3.53;;
49834;SDS011;35729;52.090;13.162;2023-07-31T05:34:08;7.55;;;3.10;;
49834;SDS011;35729;52.090;13.162;2023-07-31T05:36:36;4.05;;;2.78;;
49834;SDS011;35729;52.090;13.162;2023-07-31T05:39:04;4.57;;;3.40;;
49834;SDS011;35729;52.090;13.162;2023-07-31T05:41:36;6.53;;;3.13;;
49834;SDS011;35729;52.090;13.162;2023-07-31T05:44:04;12.13;;;3.25;;
49834;SDS011;35729;52.090;13.162;2023-07-31T05:46:33;3.85;;;2.80;;
49834;SDS011;35729;52.090;13.162;2023-07-31T05:49:01;6.78;;;2.92;;
49834;SDS011;35729;52.090;13.162;2023-07-31T05:51:30;7.32;;;3.25;;
49834;SDS011;35729;52.090;13.162;2023-07-31T05:53:58;7.88;;;3.50;;
49834;SDS011;35729;52.090;13.162;2023-07-31T05:56:27;11.00;;;3.50;;
49834;SDS011;35729;52.090;13.162;2023-07-31T05:58:59;6.03;;;2.72;;
49834;SDS011;35729;52.090;13.162;2023-07-31T06:01:28;5.60;;;3.38;;
49834;SDS011;35729;52.090;13.162;2023-07-31T06:03:56;7.80;;;2.72;;
49834;SDS011;35729;52.090;13.162;2023-07-31T06:06:25;5.57;;;2.92;;
49834;SDS011;35729;52.090;13.162;2023-07-31T06:08:53;8.00;;;3.30;;
49834;SDS011;35729;52.090;13.162;2023-07-31T06:11:21;6.10;;;2.88;;
49834;SDS011;35729;52.090;13.162;2023-07-31T06:13:50;4.63;;;2.97;;
49834;SDS011;35729;52.090;13.162;2023-07-31T06:16:21;6.65;;;3.00;;
49834;SDS011;35729;52.090;13.162;2023-07-31T06:18:50;5.40;;;3.35;;
49834;SDS011;35729;52.090;13.162;2023-07-31T06:21:19;8.25;;;3.70;;
49834;SDS011;35729;52.090;13.162;2023-07-31T06:23:47;7.60;;;3.63;;
49834;SDS011;35729;52.090;13.162;2023-07-31T06:26:16;7.97;;;3.80;;
49834;SDS011;35729;52.090;13.162;2023-07-31T06:28:44;10.93;;;5.30;;
49834;SDS011;35729;52.090;13.162;2023-07-31T06:31:12;5.43;;;3.38;;
49834;SDS011;35729;52.090;13.162;2023-07-31T06:33:57;9.98;;;3.95;;
49834;SDS011;35729;52.090;13.162;2023-07-31T06:36:25;7.38;;;3.88;;
49834;SDS011;35729;52.090;13.162;2023-07-31T06:38:53;5.72;;;3.28;;
49834;SDS011;35729;52.090;13.162;2023-07-31T06:41:22;6.60;;;3.20;;
49834;SDS011;35729;52.090;13.162;2023-07-31T06:43:50;8.02;;;3.85;;
49834;SDS011;35729;52.090;13.162;2023-07-31T06:46:19;10.88;;;3.75;;
49834;SDS011;35729;52.090;13.162;2023-07-31T06:48:47;5.85;;;3.70;;
49834;SDS011;35729;52.090;13.162;2023-07-31T06:51:18;9.23;;;4.20;;
49834;SDS011;35729;52.090;13.162;2023-07-31T06:53:47;11.82;;;3.80;;
49834;SDS011;35729;52.090;13.162;2023-07-31T06:56:15;9.57;;;4.25;;
49834;SDS011;35729;52.090;13.162;2023-07-31T06:58:43;9.40;;;4.32;;
49834;SDS011;35729;52.090;13.162;2023-07-31T07:01:12;6.25;;;3.72;;
49834;SDS011;35729;52.090;13.162;2023-07-31T07:03:40;7.47;;;4.60;;
49834;SDS011;35729;52.090;13.162;2023-07-31T07:06:09;9.32;;;3.88;;
49834;SDS011;35729;52.090;13.162;2023-07-31T07:08:40;7.40;;;3.83;;
49834;SDS011;35729;52.090;13.162;2023-07-31T07:11:08;7.13;;;3.85;;
49834;SDS011;35729;52.090;13.162;2023-07-31T07:13:36;6.28;;;3.65;;
49834;SDS011;35729;52.090;13.162;2023-07-31T07:16:05;7.68;;;3.80;;
49834;SDS011;35729;52.090;13.162;2023-07-31T07:18:33;6.13;;;4.10;;
49834;SDS011;35729;52.090;13.162;2023-07-31T07:21:02;7.75;;;4.22;;
49834;SDS011;35729;52.090;13.162;2023-07-31T07:23:30;8.90;;;4.28;;
49834;SDS011;35729;52.090;13.162;2023-07-31T07:26:01;8.00;;;4.00;;
49834;SDS011;35729;52.090;13.162;2023-07-31T07:28:30;11.75;;;4.55;;
49834;SDS011;35729;52.090;13.162;2023-07-31T07:30:58;7.95;;;3.78;;
49834;SDS011;35729;52.090;13.162;2023-07-31T07:33:26;8.15;;;4.30;;
49834;SDS011;35729;52.090;13.162;2023-07-31T07:35:55;6.55;;;3.75;;
49834;SDS011;35729;52.090;13.162;2023-07-31T07:38:27;10.93;;;4.05;;
49834;SDS011;35729;52.090;13.162;2023-07-31T07:40:55;7.15;;;4.18;;
49834;SDS011;35729;52.090;13.162;2023-07-31T07:43:26;7.93;;;4.13;;
49834;SDS011;35729;52.090;13.162;2023-07-31T07:45:55;5.90;;;3.70;;
49834;SDS011;35729;52.090;13.162;2023-07-31T07:48:23;6.10;;;3.53;;
49834;SDS011;35729;52.090;13.162;2023-07-31T07:50:52;5.90;;;3.80;;
49834;SDS011;35729;52.090;13.162;2023-07-31T07:53:21;7.28;;;4.35;;
49834;SDS011;35729;52.090;13.162;2023-07-31T07:55:49;7.28;;;4.18;;
49834;SDS011;35729;52.090;13.162;2023-07-31T07:58:18;9.48;;;4.03;;
49834;SDS011;35729;52.090;13.162;2023-07-31T08:00:52;8.95;;;4.22;;
49834;SDS011;35729;52.090;13.162;2023-07-31T08:03:21;6.25;;;3.55;;
49834;SDS011;35729;52.090;13.162;2023-07-31T08:05:49;9.50;;;3.75;;
49834;SDS011;35729;52.090;13.162;2023-07-31T08:08:18;6.53;;;3.78;;
49834;SDS011;35729;52.090;13.162;2023-07-31T08:10:46;6.05;;;3.75;;
49834;SDS011;35729;52.090;13.162;2023-07-31T08:13:14;5.30;;;3.58;;
49834;SDS011;35729;52.090;13.162;2023-07-31T08:15:43;6.63;;;3.78;;
49834;SDS011;35729;52.090;13.162;2023-07-31T08:18:14;7.18;;;3.92;;
49834;SDS011;35729;52.090;13.162;2023-07-31T08:20:42;6.65;;;3.50;;
49834;SDS011;35729;52.090;13.162;2023-07-31T08:23:11;6.70;;;3.80;;
49834;SDS011;35729;52.090;13.162;2023-07-31T08:25:40;7.80;;;4.28;;
49834;SDS011;35729;52.090;13.162;2023-07-31T08:28:08;6.93;;;4.25;;
49834;SDS011;35729;52.090;13.162;2023-07-31T08:30:37;6.93;;;4.03;;
49834;SDS011;35729;52.090;13.162;2023-07-31T08:33:06;9.48;;;4.40;;
49834;SDS011;35729;52.090;13.162;2023-07-31T08:35:38;7.38;;;4.60;;
49834;SDS011;35729;52.090;13.162;2023-07-31T08:38:06;7.13;;;4.00;;
49834;SDS011;35729;52.090;13.162;2023-07-31T08:40:35;9.93;;;4.30;;
49834;SDS011;35729;52.090;13.162;2023-07-31T08:43:04;7.43;;;4.60;;
49834;SDS011;35729;52.090;13.162;2023-07-31T08:45:33;8.98;;;4.40;;
49834;SDS011;35729;52.090;13.162;2023-07-31T08:48:02;7.50;;;3.80;;
49834;SDS011;35729;52.090;13.162;2023-07-31T08:50:31;8.10;;;3.85;;
49834;SDS011;35729;52.090;13.162;2023-07-31T08:53:03;7.38;;;4.05;;
49834;SDS011;35729;52.090;13.162;2023-07-31T08:55:32;9.80;;;3.53;;
49834;SDS011;35729;52.090;13.162;2023-07-31T08:58:01;7.72;;;3.60;;
49834;SDS011;35729;52.090;13.162;2023-07-31T09:00:32;10.05;;;4.10;;
49834;SDS011;35729;52.090;13.162;2023-07-31T09:03:02;10.50;;;3.55;;
49834;SDS011;35729;52.090;13.162;2023-07-31T09:05:36;7.15;;;3.65;;
49834;SDS011;35729;52.090;13.162;2023-07-31T09:08:10;6.70;;;3.30;;
49834;SDS011;35729;52.090;13.162;2023-07-31T09:10:43;4.97;;;3.33;;
49834;SDS011;35729;52.090;13.162;2023-07-31T09:13:12;4.85;;;3.08;;
49834;SDS011;35729;52.090;13.162;2023-07-31T09:16:02;7.07;;;2.80;;
49834;SDS011;35729;52.090;13.162;2023-07-31T09:18:31;7.72;;;3.25;;
49834;SDS011;35729;52.090;13.162;2023-07-31T09:21:00;4.22;;;3.05;;
49834;SDS011;35729;52.090;13.162;2023-07-31T09:23:42;4.18;;;2.63;;
49834;SDS011;35729;52.090;13.162;2023-07-31T09:26:13;6.13;;;2.57;;
49834;SDS011;35729;52.090;13.162;2023-07-31T09:28:57;4.18;;;2.53;;
49834;SDS011;35729;52.090;13.162;2023-07-31T09:31:32;3.85;;;2.53;;
49834;SDS011;35729;52.090;13.162;2023-07-31T09:34:18;4.32;;;2.53;;
49834;SDS011;35729;52.090;13.162;2023-07-31T09:36:48;5.55;;;2.67;;
49834;SDS011;35729;52.090;13.162;2023-07-31T09:39:21;5.38;;;2.90;;
49834;SDS011;35729;52.090;13.162;2023-07-31T09:41:54;6.43;;;2.60;;
49834;SDS011;35729;52.090;13.162;2023-07-31T09:44:28;4.63;;;2.90;;
49834;SDS011;35729;52.090;13.162;2023-07-31T09:47:05;5.07;;;2.70;;
49834;SDS011;35729;52.090;13.162;2023-07-31T09:49:34;4.22;;;3.00;;
49834;SDS011;35729;52.090;13.162;2023-07-31T09:52:02;5.53;;;2.55;;
49834;SDS011;35729;52.090;13.162;2023-07-31T09:54:42;6.68;;;3.15;;
49834;SDS011;35729;52.090;13.162;2023-07-31T09:57:11;7.13;;;2.88;;
49834;SDS011;35729;52.090;13.162;2023-07-31T09:59:42;6.03;;;2.60;;
49834;SDS011;35729;52.090;13.162;2023-07-31T10:02:11;5.07;;;2.53;;
49834;SDS011;35729;52.090;13.162;2023-07-31T10:04:43;6.47;;;2.45;;
49834;SDS011;35729;52.090;13.162;2023-07-31T10:07:13;5.03;;;2.38;;
49834;SDS011;35729;52.090;13.162;2023-07-31T10:09:47;5.00;;;2.05;;
49834;SDS011;35729;52.090;13.162;2023-07-31T10:12:19;3.22;;;2.25;;
49834;SDS011;35729;52.090;13.162;2023-07-31T10:14:49;3.53;;;2.28;;
49834;SDS011;35729;52.090;13.162;2023-07-31T10:17:19;5.65;;;2.83;;
49834;SDS011;35729;52.090;13.162;2023-07-31T10:19:49;4.57;;;2.60;;
49834;SDS011;35729;52.090;13.162;2023-07-31T10:22:18;6.05;;;2.85;;
49834;SDS011;35729;52.090;13.162;2023-07-31T10:24:50;7.15;;;2.67;;
49834;SDS011;35729;52.090;13.162;2023-07-31T10:27:22;9.07;;;2.42;;
49834;SDS011;35729;52.090;13.162;2023-07-31T10:29:50;4.85;;;2.03;;
49834;SDS011;35729;52.090;13.162;2023-07-31T10:32:20;6.10;;;2.65;;
49834;SDS011;35729;52.090;13.162;2023-07-31T10:34:50;3.55;;;2.10;;
49834;SDS011;35729;52.090;13.162;2023-07-31T10:37:20;5.30;;;2.53;;
49834;SDS011;35729;52.090;13.162;2023-07-31T10:40:02;5.93;;;2.67;;
49834;SDS011;35729;52.090;13.162;2023-07-31T10:42:32;4.28;;;2.75;;
49834;SDS011;35729;52.090;13.162;2023-07-31T10:45:03;3.90;;;2.38;;
49834;SDS011;35729;52.090;13.162;2023-07-31T10:47:36;6.82;;;2.65;;
49834;SDS011;35729;52.090;13.162;2023-07-31T10:50:13;6.10;;;2.38;;
49834;SDS011;35729;52.090;13.162;2023-07-31T10:52:48;5.65;;;2.05;;
49834;SDS011;35729;52.090;13.162;2023-07-31T10:55:27;6.28;;;2.35;;
49834;SDS011;35729;52.090;13.162;2023-07-31T10:58:04;6.03;;;2.03;;
49834;SDS011;35729;52.090;13.162;2023-07-31T11:00:34;5.05;;;2.28;;
49834;SDS011;35729;52.090;13.162;2023-07-31T11:03:06;6.07;;;1.85;;
49834;SDS011;35729;52.090;13.162;2023-07-31T11:05:44;4.95;;;2.30;;
49834;SDS011;35729;52.090;13.162;2023-07-31T11:08:19;5.82;;;2.75;;
49834;SDS011;35729;52.090;13.162;2023-07-31T11:11:05;4.65;;;2.55;;
49834;SDS011;35729;52.090;13.162;2023-07-31T11:13:39;5.65;;;2.25;;
49834;SDS011;35729;52.090;13.162;2023-07-31T11:16:09;5.50;;;2.33;;
49834;SDS011;35729;52.090;13.162;2023-07-31T11:18:39;5.18;;;2.30;;
49834;SDS011;35729;52.090;13.162;2023-07-31T11:21:11;5.75;;;2.40;;
49834;SDS011;35729;52.090;13.162;2023-07-31T11:23:41;7.13;;;2.03;;
49834;SDS011;35729;52.090;13.162;2023-07-31T11:26:12;3.25;;;1.75;;
49834;SDS011;35729;52.090;13.162;2023-07-31T11:28:40;2.95;;;1.70;;
49834;SDS011;35729;52.090;13.162;2023-07-31T11:31:09;3.75;;;1.33;;
49834;SDS011;35729;52.090;13.162;2023-07-31T11:33:38;2.63;;;1.88;;
49834;SDS011;35729;52.090;13.162;2023-07-31T11:36:10;4.13;;;1.70;;
49834;SDS011;35729;52.090;13.162;2023-07-31T11:38:43;4.53;;;1.83;;
49834;SDS011;35729;52.090;13.162;2023-07-31T11:41:14;4.03;;;1.98;;
49834;SDS011;35729;52.090;13.162;2023-07-31T11:43:44;4.47;;;2.20;;
49834;SDS011;35729;52.090;13.162;2023-07-31T11:46:13;5.18;;;1.70;;
49834;SDS011;35729;52.090;13.162;2023-07-31T11:48:43;4.63;;;2.40;;
49834;SDS011;35729;52.090;13.162;2023-07-31T11:51:12;3.13;;;1.90;;
49834;SDS011;35729;52.090;13.162;2023-07-31T11:53:43;4.13;;;2.33;;
49834;SDS011;35729;52.090;13.162;2023-07-31T11:56:16;3.80;;;1.90;;
49834;SDS011;35729;52.090;13.162;2023-07-31T11:58:46;5.07;;;2.05;;
49834;SDS011;35729;52.090;13.162;2023-07-31T12:01:16;4.95;;;1.80;;
49834;SDS011;35729;52.090;13.162;2023-07-31T12:03:46;4.93;;;2.20;;
49834;SDS011;35729;52.090;13.162;2023-07-31T12:06:15;5.47;;;2.40;;
49834;SDS011;35729;52.090;13.162;2023-07-31T12:08:46;6.40;;;3.05;;
49834;SDS011;35729;52.090;13.162;2023-07-31T12:11:17;4.82;;;2.55;;
49834;SDS011;35729;52.090;13.162;2023-07-31T12:13:45;5.03;;;2.47;;
49834;SDS011;35729;52.090;13.162;2023-07-31T12:16:14;5.53;;;2.50;;
49834;SDS011;35729;52.090;13.162;2023-07-31T12:18:42;4.72;;;2.63;;
49834;SDS011;35729;52.090;13.162;2023-07-31T12:21:11;7.57;;;3.08;;
49834;SDS011;35729;52.090;13.162;2023-07-31T12:23:40;6.10;;;2.83;;
49834;SDS011;35729;52.090;13.162;2023-07-31T12:26:09;4.38;;;2.40;;
49834;SDS011;35729;52.090;13.162;2023-07-31T12:28:43;5.25;;;2.58;;
49834;SDS011;35729;52.090;13.162;2023-07-31T12:31:14;3.70;;;2.15;;
49834;SDS011;35729;52.090;13.162;2023-07-31T12:33:45;7.60;;;3.08;;
49834;SDS011;35729;52.090;13.162;2023-07-31T12:36:15;6.38;;;3.20;;
49834;SDS011;35729;52.090;13.162;2023-07-31T12:38:44;7.63;;;2.60;;
49834;SDS011;35729;52.090;13.162;2023-07-31T12:41:13;7.03;;;2.42;;
49834;SDS011;35729;52.090;13.162;2023-07-31T12:43:44;7.05;;;3.03;;
49834;SDS011;35729;52.090;13.162;2023-07-31T12:46:13;6.78;;;3.35;;
49834;SDS011;35729;52.090;13.162;2023-07-31T12:48:42;7.78;;;2.63;;
49834;SDS011;35729;52.090;13.162;2023-07-31T12:51:11;4.05;;;2.80;;
49834;SDS011;35729;52.090;13.162;2023-07-31T12:53:39;4.03;;;2.92;;
49834;SDS011;35729;52.090;13.162;2023-07-31T12:56:07;6.57;;;2.67;;
49834;SDS011;35729;52.090;13.162;2023-07-31T12:58:36;7.47;;;2.90;;
49834;SDS011;35729;52.090;13.162;2023-07-31T13:01:07;3.97;;;2.38;;
49834;SDS011;35729;52.090;13.162;2023-07-31T13:03:35;8.90;;;2.88;;
49834;SDS011;35729;52.090;13.162;2023-07-31T13:06:04;3.50;;;2.40;;
49834;SDS011;35729;52.090;13.162;2023-07-31T13:08:32;8.82;;;3.80;;
49834;SDS011;35729;52.090;13.162;2023-07-31T13:11:01;6.07;;;2.60;;
49834;SDS011;35729;52.090;13.162;2023-07-31T13:13:29;5.63;;;2.58;;
49834;SDS011;35729;52.090;13.162;2023-07-31T13:15:58;6.18;;;2.53;;
49834;SDS011;35729;52.090;13.162;2023-07-31T13:18:29;7.65;;;2.95;;
49834;SDS011;35729;52.090;13.162;2023-07-31T13:20:57;7.00;;;2.90;;
49834;SDS011;35729;52.090;13.162;2023-07-31T13:23:26;3.95;;;2.40;;
49834;SDS011;35729;52.090;13.162;2023-07-31T13:25:54;5.50;;;2.83;;
49834;SDS011;35729;52.090;13.162;2023-07-31T13:28:22;3.55;;;2.30;;
49834;SDS011;35729;52.090;13.162;2023-07-31T13:30:51;5.05;;;2.97;;
49834;SDS011;35729;52.090;13.162;2023-07-31T13:33:19;5.18;;;2.60;;
49834;SDS011;35729;52.090;13.162;2023-07-31T13:35:50;5.70;;;2.80;;
49834;SDS011;35729;52.090;13.162;2023-07-31T13:38:19;5.78;;;2.85;;
49834;SDS011;35729;52.090;13.162;2023-07-31T13:40:47;5.07;;;2.50;;
49834;SDS011;35729;52.090;13.162;2023-07-31T13:43:16;5.22;;;2.97;;
49834;SDS011;35729;52.090;13.162;2023-07-31T13:45:44;8.82;;;3.00;;
49834;SDS011;35729;52.090;13.162;2023-07-31T13:48:12;3.72;;;2.60;;
49834;SDS011;35729;52.090;13.162;2023-07-31T13:50:41;3.92;;;2.40;;
49834;SDS011;35729;52.090;13.162;2023-07-31T13:53:12;4.95;;;2.45;;
49834;SDS011;35729;52.090;13.162;2023-07-31T13:55:40;5.15;;;2.83;;
49834;SDS011;35729;52.090;13.162;2023-07-31T13:58:10;4.20;;;2.38;;
49834;SDS011;35729;52.090;13.162;2023-07-31T14:00:39;4.07;;;2.63;;
49834;SDS011;35729;52.090;13.162;2023-07-31T14:03:07;6.85;;;3.15;;
49834;SDS011;35729;52.090;13.162;2023-07-31T14:05:36;5.28;;;2.80;;
49834;SDS011;35729;52.090;13.162;2023-07-31T14:08:05;3.80;;;2.83;;
49834;SDS011;35729;52.090;13.162;2023-07-31T14:10:36;3.92;;;2.58;;
49834;SDS011;35729;52.090;13.162;2023-07-31T14:13:04;4.13;;;2.75;;
49834;SDS011;35729;52.090;13.162;2023-07-31T14:15:33;4.47;;;2.30;;
49834;SDS011;35729;52.090;13.162;2023-07-31T14:18:01;7.38;;;3.03;;
49834;SDS011;35729;52.090;13.162;2023-07-31T14:20:30;3.38;;;2.55;;
49834;SDS011;35729;52.090;13.162;2023-07-31T14:22:58;7.82;;;2.97;;
49834;SDS011;35729;52.090;13.162;2023-07-31T14:25:27;5.05;;;2.85;;
49834;SDS011;35729;52.090;13.162;2023-07-31T14:27:58;4.80;;;2.67;;
49834;SDS011;35729;52.090;13.162;2023-07-31T14:30:26;3.88;;;2.33;;
49834;SDS011;35729;52.090;13.162;2023-07-31T14:32:55;4.03;;;2.53;;
49834;SDS011;35729;52.090;13.162;2023-07-31T14:35:30;4.50;;;2.35;;
49834;SDS011;35729;52.090;13.162;2023-07-31T14:37:58;7.13;;;2.85;;
49834;SDS011;35729;52.090;13.162;2023-07-31T14:40:27;3.67;;;2.70;;
49834;SDS011;35729;52.090;13.162;2023-07-31T14:42:58;3.85;;;2.53;;
49834;SDS011;35729;52.090;13.162;2023-07-31T14:45:26;3.78;;;2.38;;
49834;SDS011;35729;52.090;13.162;2023-07-31T14:47:55;5.53;;;2.67;;
49834;SDS011;35729;52.090;13.162;2023-07-31T14:50:24;4.97;;;2.53;;